Getzville 2E NY

43° 01' 25"N, 78° 44' 55"W, Elevation 589 ft.
Eastern Time

Hourly observations for the last 72 hours

Date Time Temperature (°F) Humi-
dity

(%)
Wind
(mph)
Pressure Rain (in) Sun
(W/m2)
ET
(in)
Air Dew 6 Hour 1 Hr 3 Hr 6 Hr Day
Alt
(in)
Sea
Level

(mb)
Max Min
24 03:00 55.6 51.2 85 Calm 29.84 1010.5 0.00 0 0.002
24 02:00 56.9 51.5 69.7 56.9 82 Calm 29.84 1010.7 0.00 0 0.002
24 01:00 58.0 51.9 80 Calm 29.85 1010.9 0.00 0 0.000
24 00:00 58.9 52.4 79 Calm 29.86 1011.1 0.06 0 0.218
23 23:00 59.9 52.7 77 Calm 29.86 1011.3 0.06 0 0.217
23 22:00 61.8 51.9 70 Calm 29.85 1011.0 0.06 0 0.216
23 21:00 65.1 53.1 65 SSW 0 G 1 29.84 1010.7 0.06 0 0.215
23 20:00 69.7 51.3 76.4 69.7 52 WSW 2 G 10 29.85 1010.9 0.06 35 0.210
23 19:00 73.2 51.2 46 W 6 G 13 29.85 1011.0 0.06 295 0.201
23 18:00 73.2 52.4 48 WNW 1 G 12 29.86 1011.1 0.06 128 0.201
23 17:00 73.7 55.0 52 SW 3 G 12 29.86 1011.2 0.06 434 0.184
23 16:00 73.8 55.6 53 W 2 G 11 29.87 1011.6 0.06 930 0.163
23 15:00 75.2 56.4 52 S 4 G 11 29.89 1012.1 0.06 1046 0.137
23 14:00 75.7 57.4 76.3 64.6 53 SW 3 G 11 29.89 1012.1 0.06 1139 0.137
23 13:00 74.8 57.6 55 SW 3 G 13 29.89 1012.2 0.06 1162 0.080
23 12:00 76.2 60.4 58 W 2 G 12 29.90 1012.6 0.06 1169 0.080
23 11:00 73.8 56.6 55 SSW 1 G 9 29.91 1012.8 0.06 1005 0.030
23 10:00 69.9 58.0 66 WSW 1 G 7 29.92 1013.1 0.06 828 0.030
23 09:00 67.8 58.5 72 NW 3 G 7 29.91 1012.8 0.06 496 0.008
23 08:00 64.6 60.3 64.6 57.7 86 W 1 G 3 29.90 1012.5 0.06 306 0.008
23 07:00 59.7 57.7 93 Calm 29.89 1012.1 0.06 146 0.003
23 06:00 58.3 55.7 91 Calm 29.86 1011.3 0.06 7 0.002
23 05:00 59.1 56.5 91 Calm 29.85 1011.0 0.06 0 0.002
23 04:00 59.9 57.0 90 Calm 29.83 1010.1 0.06 0 0.002
23 03:00 61.5 58.2 89 S 2 G 4 29.78 1008.7 0.06 0 0.002
23 02:00 64.4 61.1 76.4 64.4 89 WNW 3 G 14 29.80 1009.2 0.06 0.06 0.06 0.06 0 0.002
23 01:00 68.5 61.0 77 W 6 G 13 29.78 1008.7 0.00 0 0.000
23 00:00 74.8 67.1 77 WSW 1 G 9 29.73 1006.9 0.16 0 0.145
22 23:00 73.8 66.9 79 W 2 G 7 29.72 1006.5 0.16 0 0.144
22 22:00 72.8 67.3 83 W 1 G 3 29.70 1006.0 0.16 0 0.143
22 21:00 73.8 68.0 82 WSW 0 G 3 29.71 1006.3 0.16 0 0.143
22 20:00 76.4 69.0 81.9 67.4 78 WNW 1 G 4 29.70 1005.8 0.16 0.16 37 0.138
22 19:00 76.3 69.3 79 SW 1 G 5 29.71 1006.0 0.16 302 0.134
22 18:00 77.6 69.4 76 WSW 3 G 10 29.72 1006.3 0.16 172 0.126
22 17:00 73.9 68.4 83 SW 3 G 8 29.70 1006.0 0.16 0.16 373 0.118
22 16:00 69.5 67.1 92 S 2 G 5 29.74 1007.0 0.02 0.16 439 0.114
22 15:00 68.0 64.6 89 S 1 G 7 29.78 1008.6 0.14 0.14 18 0.114
22 14:00 81.9 68.1 85.8 76.2 63 SW 2 G 13 29.76 1007.8 0.00 104 0.099
22 13:00 84.5 70.5 63 WSW 5 G 11 29.74 1007.3 0.00 541 0.075
22 12:00 84.3 69.9 62 WNW 4 G 12 29.76 1007.8 0.00 325 0.075
22 11:00 83.8 68.9 61 WSW 5 G 11 29.76 1008.0 0.00 956 0.052
22 10:00 81.0 68.1 65 SW 3 G 11 29.78 1008.5 0.00 777 0.029
22 09:00 79.0 68.4 70 S 1 G 5 29.79 1008.7 0.00 418 0.016
22 08:00 76.2 66.9 76.2 62.7 73 SW 0 G 2 29.79 1008.7 0.00 295 0.007
22 07:00 65.7 62.4 89 Calm 29.79 1008.9 0.00 139 0.002
22 06:00 63.1 59.8 89 Calm 29.80 1009.0 0.00 7 0.001
22 05:00 62.9 59.6 89 Calm 29.80 1009.0 0.00 0 0.001
22 04:00 63.0 59.7 89 Calm 29.80 1009.3 0.00 0 0.001
22 03:00 63.7 60.1 88 Calm 29.81 1009.3 0.00 0 0.001
22 02:00 64.3 60.4 75.6 64.3 87 Calm 29.79 1008.8 0.00 0 0.001
22 01:00 64.7 60.4 86 Calm 29.79 1008.9 0.00 0 0.000
22 00:00 65.7 60.4 83 Calm 29.79 1008.9 0.00 0 0.207
21 23:00 67.5 60.4 78 Calm 29.80 1009.2 0.00 0 0.206
21 22:00 69.7 61.1 74 Calm 29.81 1009.4 0.00 0 0.205
21 21:00 72.4 62.5 71 SW 0 G 3 29.80 1009.2 0.00 0 0.205
21 20:00 75.6 64.3 86.3 75.6 68 WNW 1 G 4 29.80 1009.1 0.00 32 0.200
21 19:00 78.3 65.1 64 WSW 2 G 4 29.80 1009.0 0.00 271 0.192
21 18:00 81.0 65.8 60 SW 2 G 13 29.81 1009.3 0.00 93 0.184
21 17:00 83.6 65.7 55 W 7 G 17 29.82 1009.7 0.00 512 0.184
21 16:00 84.1 66.7 56 W 5 G 20 29.82 1009.8 0.00 260 0.156
21 15:00 86.2 68.2 55 WSW 5 G 17 29.82 1009.7 0.00 988 0.156
21 14:00 85.5 68.0 85.5 69.0 56 WNW 5 G 16 29.82 1009.9 0.00 1076 0.097
21 13:00 83.7 67.4 58 WSW 3 G 11 29.83 1010.3 0.00 1107 0.097
21 12:00 82.3 68.5 63 W 4 G 13 29.84 1010.7 0.00 1056 0.042
21 11:00 81.4 66.7 61 W 3 G 12 29.85 1010.9 0.00 1085 0.042
21 10:00 77.3 65.5 67 S 2 G 11 29.86 1011.3 0.00 601 0.012
21 09:00 74.2 66.5 77 Calm 29.86 1011.3 0.00 357 0.012
21 08:00 69.0 64.6 69.0 63.0 86 Calm 29.87 1011.5 0.00 239 0.002
21 07:00 65.5 61.9 88 Calm 29.86 1011.4 0.00 83 0.002
21 06:00 63.1 60.1 90 ESE 1 G 4 29.86 1011.3 0.00 9 0.001
21 05:00 63.3 60.0 89 Calm 29.84 1010.7 0.00 0 0.001
21 04:00 63.5 60.2 89 Calm 29.84 1010.6 0.00 0 0.001

Data generated by WxSolution Version 1.9.2, Build 2023.03.05.